Flight Track Log - Related Links

Times and Time Zones

All times are in EDT time to prevent confusion due to time zone crossing. See the EJA588 flight status page for this flight to view local times or setup timezone preferences in your user account.


Time Position Orientation Groundspeed Altitude Reporting Facility
EDT Latitude Longitude Course Direction KTS MPH feet Rate Location/Type
Wed 01:35:39 PM 47.5144 -122.2897 146° Southeast 173 199 1,200  Level Seattle Center
Wed 01:36:27 PM 47.4786 -122.2536 146° Southeast 206 237 3,000 1,568 Climbing Seattle Center
Wed 01:37:30 PM 47.4203 -122.2128 155° Southeast 230 265 4,100 1,200 Climbing Seattle Center
Wed 01:38:32 PM 47.3492 -122.2072 177° South 252 290 5,500 2,341 Climbing Seattle Center
Wed 01:39:33 PM 47.3319 -122.2986 254° West 258 297 8,900 3,197 Climbing Seattle Center
Wed 01:40:34 PM 47.3447 -122.4069 280° West 267 307 12,000 2,852 Climbing Seattle Center
Wed 01:41:35 PM 47.3589 -122.5183 281° West 275 316 14,700 2,410 Climbing Seattle Center
Wed 01:42:36 PM 47.3483 -122.6439 263° West 295 339 16,900 1,902 Climbing Seattle Center
Wed 01:43:38 PM 47.3197 -122.7578 250° West 301 346 18,600 1,805 Climbing Seattle Center
Wed 01:44:39 PM 47.2881 -122.8775 249° West 312 359 20,600 1,967 Climbing Seattle Center
Wed 01:45:40 PM 47.2567 -122.9992 249° West 318 366 22,600 1,967 Climbing Seattle Center
Wed 01:46:41 PM 47.2244 -123.1236 249° West 326 375 24,600 1,918 Climbing Seattle Center
Wed 01:47:42 PM 47.1911 -123.2456 248° West 325 374 26,500 1,659 Climbing Seattle Center
Wed 01:48:44 PM 47.1286 -123.3492 228° Southwest 344 396 28,000 1,561 Climbing Seattle Center
Wed 01:49:45 PM 47.0200 -123.4069 200° South 358 412 29,700 1,328 Climbing Seattle Center
Wed 01:50:46 PM 46.9164 -123.4044 179° South 374 430 30,700 984 Climbing Seattle Center
Wed 01:51:47 PM 46.8103 -123.4033 180° South 385 443 31,700 984 Climbing Seattle Center
Wed 01:52:48 PM 46.7011 -123.4019 180° South 394 453 32,700 976 Climbing Seattle Center
Wed 01:53:50 PM 46.5931 -123.4053 181° South 394 453 33,700 976 Climbing Seattle Center
Wed 01:54:51 PM 46.4831 -123.4028 179° South 399 459 34,700 1,033 Climbing Seattle Center
Wed 01:55:52 PM 46.3594 -123.3981 178° South 399 459 35,800 1,033 Climbing Seattle Center
Wed 01:56:53 PM 46.2517 -123.3986 180° South 391 450 36,800 984 Climbing Seattle Center
Wed 01:57:54 PM 46.1478 -123.3967 179° South 383 441 37,800 984 Climbing Seattle Center
Wed 01:58:55 PM 46.0447 -123.3947 179° South 374 430 38,800 976 Climbing Seattle Center
Wed 01:59:57 PM 45.9425 -123.3928 177° South 370 426 39,800 927 Climbing Seattle Center
Wed 02:00:00 PM 45.9374 -123.3863 177° South  Level FlightAware Approximate
Wed 02:00:58 PM 45.8433 -123.3908 179° South 361 415 40,700  Level Seattle Center
Wed 02:01:59 PM 45.7439 -123.3908 180° South 359 413 41,000 148 Climbing Seattle Center
Wed 02:03:00 PM 45.6394 -123.3881 179° South 370 426 41,000  Level Seattle Center
Wed 02:04:01 PM 45.5131 -123.3867 180° South 379 436 41,000  Level Seattle Center
Wed 02:05:02 PM 45.4053 -123.3844 179° South 386 444 41,000  Level Seattle Center
Wed 02:06:04 PM 45.2969 -123.3817 179° South 389 448 41,000  Level Seattle Center
Wed 02:07:05 PM 45.1894 -123.3786 179° South 387 445 41,000  Level Seattle Center
Wed 02:08:06 PM 45.0811 -123.3778 180° South 387 445 41,000  Level Seattle Center
Wed 02:09:07 PM 44.9722 -123.3750 179° South 386 444 41,000  Level Seattle Center
Wed 02:10:08 PM 44.8619 -123.3714 179° South 387 445 41,000  Level Seattle Center
Wed 02:11:09 PM 44.7525 -123.3711 180° South 390 449 41,000  Level Seattle Center
Wed 02:12:10 PM 44.6489 -123.3708 180° South 375 432 41,000  Level Seattle Center
Wed 02:13:12 PM 44.5436 -123.3703 180° South 379 436 41,000  Level Seattle Center
Wed 02:14:13 PM 44.4378 -123.3689 179° South 379 436 41,000  Level Seattle Center
Wed 02:15:14 PM 44.3297 -123.3647 178° South 387 445 41,000  Level Seattle Center
Wed 02:16:15 PM 44.2244 -123.3633 179° South 382 440 41,000  Level Seattle Center
Wed 02:17:16 PM 44.1189 -123.3664 181° South 381 438 41,000  Level Seattle Center
Wed 02:18:18 PM 44.0067 -123.3625 179° South 380 437 41,000  Level Seattle Center
Wed 02:19:19 PM 43.9008 -123.3608 179° South 380 437 41,000  Level Seattle Center
Wed 02:20:20 PM 43.7953 -123.3583 179° South 380 437 41,000  Level Seattle Center
Wed 02:21:21 PM 43.6672 -123.3561 179° South 384 442 41,000  Level Seattle Center
Wed 02:22:22 PM 43.5608 -123.3542 179° South 383 441 41,000  Level Seattle Center
Wed 02:23:24 PM 43.4544 -123.3553 180° South 382 440 41,000  Level Seattle Center
Wed 02:24:25 PM 43.3475 -123.3553 180° South 385 443 41,000  Level Seattle Center
Wed 02:25:26 PM 43.2422 -123.3517 179° South 380 437 41,000  Level Seattle Center
Wed 02:26:27 PM 43.1358 -123.3489 179° South 382 440 41,000  Level Seattle Center
Wed 02:27:29 PM 43.0292 -123.3464 179° South 383 441 41,000  Level Seattle Center
Wed 02:28:30 PM 42.9228 -123.3450 179° South 384 442 41,000  Level Seattle Center
Wed 02:29:31 PM 42.8161 -123.3431 179° South 384 442 41,000  Level Seattle Center
Wed 02:30:33 PM 42.7100 -123.3422 180° South 382 440 41,000  Level Seattle Center
Wed 02:31:34 PM 42.5856 -123.3389 179° South 378 435 41,000  Level Seattle Center
Wed 02:32:35 PM 42.4819 -123.3381 180° South 376 433 41,000  Level Seattle Center
Wed 02:33:37 PM 42.3794 -123.3353 179° South 371 427 41,000  Level Seattle Center
Wed 02:34:38 PM 42.2772 -123.3325 179° South 368 423 41,000  Level Seattle Center
Wed 02:35:40 PM 42.1742 -123.3319 180° South 372 428 41,000  Level Seattle Center
Wed 02:36:41 PM 42.0717 -123.3294 179° South 370 426 41,000  Level Seattle Center
Wed 02:37:42 PM 41.9692 -123.3278 179° South 372 428 41,000  Level Seattle Center
Wed 02:38:44 PM 41.8456 -123.3231 178° South 372 428 41,000  Level Seattle Center
Wed 02:39:45 PM 41.7436 -123.3222 180° South 371 427 41,000  Level Seattle Center
Wed 02:40:46 PM 41.6411 -123.3206 179° South 369 425 41,000  Level Seattle Center
Wed 02:41:47 PM 41.5361 -123.3089 175° South 381 438 41,000  Level Seattle Center
Wed 02:42:45 PM 41.4344 -123.3008 177° South 372 428 41,000  Level Oakland Center
Wed 02:43:50 PM 41.3247 -123.2808 172° South 384 442 41,000  Level Seattle Center
Wed 02:44:51 PM 41.2189 -123.2669 174° South 383 441 41,000  Level Seattle Center
Wed 02:45:53 PM 41.1128 -123.2528 174° South 383 441 41,000  Level Seattle Center
Wed 02:46:54 PM 41.0081 -123.2378 174° South 379 436 41,000  Level Seattle Center
Wed 02:47:55 PM 40.8836 -123.2228 175° South 375 432 41,000  Level Seattle Center
Wed 02:48:57 PM 40.7828 -123.2111 175° South 366 421 41,000  Level Seattle Center
Wed 02:49:58 PM 40.6800 -123.1983 175° South 367 422 41,000  Level Seattle Center
Wed 02:50:59 PM 40.5772 -123.1842 174° South 369 425 41,000  Level Seattle Center
Wed 02:51:59 PM 40.4756 -123.1703 174° South 363 418 41,000  Level Oakland Center
Wed 02:53:00 PM 40.3744 -123.1567 174° South 364 419 41,000  Level Oakland Center
Wed 02:54:02 PM 40.2764 -123.1450 175° South 357 411 41,000  Level Oakland Center
Wed 02:55:03 PM 40.1792 -123.1314 174° South 353 406 41,000  Level Oakland Center
Wed 02:56:05 PM 40.0797 -123.1175 174° South 358 412 41,000  Level Oakland Center
Wed 02:57:06 PM 39.9789 -123.1061 175° South 362 417 41,000  Level Oakland Center
Wed 02:58:08 PM 39.8800 -123.0919 174° South 360 414 41,000  Level Oakland Center
Wed 02:59:09 PM 39.7608 -123.0767 174° South 358 412 41,000  Level Oakland Center
Wed 03:00:11 PM 39.6594 -123.0631 174° South 359 413 41,000  Level Oakland Center
Wed 03:01:12 PM 39.5608 -123.0503 174° South 359 413 41,000  Level Oakland Center
Wed 03:02:14 PM 39.4594 -123.0386 175° South 356 410 41,000  Level Oakland Center
Wed 03:03:16 PM 39.3611 -123.0250 174° South 356 410 41,000  Level Oakland Center
Wed 03:04:17 PM 39.2636 -123.0128 174° South 355 409 41,000  Level Oakland Center
Wed 03:05:19 PM 39.1644 -123.0017 175° South 357 411 41,000 -98 Level Oakland Center
Wed 03:06:20 PM 39.0656 -122.9894 175° South 357 411 40,800 -878 Descending Oakland Center
Wed 03:07:22 PM 38.9681 -122.9781 175° South 355 409 39,200 -1,756 Descending Oakland Center
Wed 03:08:23 PM 38.8742 -122.9653 174° South 344 396 37,200 -2,098 Descending Oakland Center
Wed 03:09:25 PM 38.7644 -122.9517 174° South 333 383 34,900 -2,098 Descending Oakland Center
Wed 03:10:26 PM 38.6711 -122.9400 174° South 336 387 32,900 -1,951 Descending Oakland Center
Wed 03:11:28 PM 38.5739 -122.9275 174° South 347 399 30,900 -1,935 Descending Oakland Center
Wed 03:12:30 PM 38.4733 -122.9158 175° South 358 412 28,900 -1,902 Descending Oakland Center
Wed 03:13:31 PM 38.3703 -122.9042 175° South 369 425 27,000 -1,902 Descending Oakland Center
Wed 03:14:33 PM 38.2631 -122.8906 174° South 382 440 25,000 -1,935 Descending Oakland Center
Wed 03:15:35 PM 38.1564 -122.8778 175° South 388 447 23,000 -2,098 Descending Oakland Center
Wed 03:16:36 PM 38.0422 -122.8242 160° South 377 434 20,700 -2,098 Descending Oakland Center
Wed 03:17:38 PM 37.9619 -122.7431 141° Southeast 374 430 18,700 -1,951 Descending Oakland Center
Wed 03:18:39 PM 37.8842 -122.6606 140° Southeast 377 434 16,700 -2,136 Descending Oakland Center
Wed 03:19:36 PM 37.8000 -122.5667 139° Southeast 362 417 14,500 -2,224 Descending Northern Cal TRACON
Wed 03:20:35 PM 37.7333 -122.5000 142° Southeast 348 400 12,400 -1,250 Descending Northern Cal TRACON
Wed 03:21:36 PM 37.6667 -122.4167 135° Southeast 344 396 12,000 -143 Descending Northern Cal TRACON
Wed 03:22:41 PM 37.5667 -122.3333 147° Southeast 348 400 12,100  Climbing Northern Cal TRACON
Wed 03:23:36 PM 37.5167 -122.2667 133° Southeast 344 396 12,000 -887 Descending Northern Cal TRACON
Wed 03:24:36 PM 37.4500 -122.1833 135° Southeast 300 345 10,400 -1,800 Descending Northern Cal TRACON
Wed 03:25:36 PM 37.3833 -122.1333 149° Southeast 281 323 8,400 -1,700 Descending Northern Cal TRACON
Wed 03:26:36 PM 37.3167 -122.0667 141° Southeast 268 308 7,000 -789 Descending Northern Cal TRACON
Wed 03:27:30 PM 37.2667 -122.0333 152° Southeast 255 293 6,900 -737 Descending Northern Cal TRACON
Wed 03:28:30 PM 37.2167 -121.9667 133° Southeast 265 305 5,600 -1,450 Descending Northern Cal TRACON
Wed 03:29:30 PM 37.2167 -121.8833 90° East 271 312 4,000 -1,537 Descending Northern Cal TRACON
Wed 03:30:31 PM 37.2833 -121.8333 31° Northeast 250 288 2,500 -1,250 Descending Northern Cal TRACON
Wed 03:31:30 PM 37.3167 -121.8833 310° West 172 198 1,500 -1,011 Descending Northern Cal TRACON
Wed 03:32:00 PM 37.3258 -121.8922 322° Northwest 195 224 1,000 -848 Descending Oakland Center
Wed 03:33:02 PM 37.3519 -121.9186 321° Northwest 148 170 200 -774 Descending Oakland Center

Login

Don't have an account? Register now (free) for customized features, flight alerts, and more!